Time;durP1;ratioP1;P1;durP2;ratioP2;P2;SDS_P1;SDS_P2;PMS_P1;PMS_P2;Temp;Humidity;BMP_temperature;BMP_pressure;BME280_temperature;BME280_humidity;BME280_pressure;Samples;Min_cycle;Max_cycle;Signal;HPM_P1;HPM_P2
2022/06/10 00:01:44;;;;;;;8.82;3.20;;;11.80;99.90;;;;;;5136281;27;20034;-73
2022/06/10 00:04:09;;;;;;;9.77;3.00;;;11.80;99.90;;;;;;5139662;27;20077;-73
2022/06/10 00:06:35;;;;;;;8.98;3.78;;;11.80;99.90;;;;;;5117541;27;20276;-73
2022/06/10 00:09:02;;;;;;;9.10;3.38;;;11.80;99.90;;;;;;5123081;27;20099;-73
2022/06/10 00:11:27;;;;;;;13.52;3.70;;;11.80;99.90;;;;;;5137065;27;20063;-72
2022/06/10 00:13:53;;;;;;;9.30;3.70;;;11.80;99.90;;;;;;5119415;27;20650;-73
2022/06/10 00:16:20;;;;;;;10.93;4.30;;;11.90;99.90;;;;;;5136573;27;20458;-72
2022/06/10 00:18:46;;;;;;;13.18;3.70;;;11.90;99.90;;;;;;5119686;27;20405;-72
2022/06/10 00:21:14;;;;;;;10.10;3.40;;;11.90;99.90;;;;;;5123035;27;20434;-72
2022/06/10 00:23:40;;;;;;;8.65;4.03;;;11.80;99.90;;;;;;5118902;27;20111;-73
2022/06/10 00:26:07;;;;;;;9.32;3.47;;;11.80;99.90;;;;;;5120443;27;20077;-72
2022/06/10 00:28:33;;;;;;;10.73;3.85;;;11.80;99.90;;;;;;5121863;27;20870;-72
2022/06/10 00:30:58;;;;;;;17.75;4.10;;;11.90;99.90;;;;;;5126379;27;20042;-72
2022/06/10 00:33:24;;;;;;;10.93;4.10;;;11.80;99.90;;;;;;5106513;27;20192;-72
2022/06/10 00:35:50;;;;;;;9.35;3.42;;;11.80;99.90;;;;;;5126438;27;20068;-73
2022/06/10 00:38:17;;;;;;;11.20;3.50;;;11.80;99.90;;;;;;5121709;27;20483;-72
2022/06/10 00:40:49;;;;;;;12.57;3.63;;;11.80;99.90;;;;;;5108109;27;20504;-72
2022/06/10 00:43:17;;;;;;;8.20;3.13;;;11.80;99.90;;;;;;5138362;27;20501;-73
2022/06/10 00:46:11;;;;;;;12.07;3.70;;;11.80;99.90;;;;;;5137408;27;20551;-73
2022/06/10 00:48:57;;;;;;;10.82;4.10;;;11.80;99.90;;;;;;5136426;27;20485;-72
2022/06/10 00:51:35;;;;;;;10.20;3.72;;;11.80;99.90;;;;;;5139143;27;20046;-73
2022/06/10 00:54:07;;;;;;;7.53;3.75;;;11.80;99.90;;;;;;5122386;27;20488;-73
2022/06/10 00:56:34;;;;;;;10.40;3.95;;;11.80;99.90;;;;;;5118067;27;20062;-73
2022/06/10 00:59:13;;;;;;;9.48;3.70;;;11.70;99.90;;;;;;5120109;27;20534;-73
2022/06/10 01:01:40;;;;;;;10.43;3.63;;;11.80;99.90;;;;;;5122345;27;20520;-73
2022/06/10 01:04:07;;;;;;;12.20;4.47;;;11.70;99.90;;;;;;5136075;27;20491;-73
2022/06/10 01:06:32;;;;;;;15.55;3.40;;;11.70;99.90;;;;;;5138026;27;20496;-73
2022/06/10 01:09:00;;;;;;;10.55;3.17;;;11.70;99.90;;;;;;5135892;27;20034;-73
2022/06/10 01:11:44;;;;;;;7.75;3.53;;;11.70;99.90;;;;;;5138856;27;20039;-72
2022/06/10 01:14:35;;;;;;;8.80;3.30;;;11.70;99.90;;;;;;5136056;27;20404;-72
2022/06/10 01:17:47;;;;;;;11.38;3.45;;;11.70;99.90;;;;;;5119036;27;20505;-72
2022/06/10 01:20:44;;;;;;;11.50;3.30;;;11.60;99.90;;;;;;5106138;27;20838;-73
2022/06/10 01:23:32;;;;;;;12.20;3.22;;;11.60;99.90;;;;;;5114959;27;20515;-73
2022/06/10 01:26:32;;;;;;;11.20;3.33;;;11.60;99.90;;;;;;5139785;27;20043;-72
2022/06/10 01:29:47;;;;;;;9.88;3.30;;;11.60;99.90;;;;;;5120028;27;20151;-72
2022/06/10 01:32:28;;;;;;;10.93;3.58;;;11.50;99.90;;;;;;5053791;27;20442;-73
2022/06/10 01:35:02;;;;;;;9.30;3.13;;;11.50;99.90;;;;;;5139190;27;20062;-73
2022/06/10 01:37:51;;;;;;;9.68;3.83;;;11.50;99.90;;;;;;5119914;27;20065;-72
2022/06/10 01:40:34;;;;;;;10.15;3.15;;;11.50;99.90;;;;;;5132392;27;20392;-72
2022/06/10 01:43:12;;;;;;;11.93;3.80;;;11.50;99.90;;;;;;5117185;27;20058;-72
2022/06/10 01:46:04;;;;;;;11.95;3.40;;;11.40;99.90;;;;;;5134154;27;20035;-72
2022/06/10 01:48:39;;;;;;;8.15;3.10;;;11.40;99.90;;;;;;5130656;27;20038;-73
2022/06/10 01:51:11;;;;;;;9.27;3.50;;;11.40;99.90;;;;;;5116625;27;20367;-72
2022/06/10 01:53:49;;;;;;;10.02;3.35;;;11.40;99.90;;;;;;5118483;27;20497;-72
2022/06/10 01:56:14;;;;;;;13.65;3.80;;;11.40;99.90;;;;;;5115658;27;20435;-72
2022/06/10 01:58:49;;;;;;;14.38;3.65;;;11.40;99.90;;;;;;5120415;27;20053;-72
2022/06/10 02:01:27;;;;;;;7.85;3.38;;;11.30;99.90;;;;;;5115070;27;20457;-72
2022/06/10 02:04:08;;;;;;;10.63;3.60;;;11.30;99.90;;;;;;5116655;27;20031;-72
2022/06/10 02:06:43;;;;;;;11.68;3.45;;;11.30;99.90;;;;;;5134236;27;20371;-72
2022/06/10 02:09:13;;;;;;;9.50;3.40;;;11.20;99.90;;;;;;5112081;27;20088;-72
2022/06/10 02:11:43;;;;;;;6.63;2.83;;;11.20;99.90;;;;;;5114344;27;20735;-72
2022/06/10 02:14:15;;;;;;;8.05;3.65;;;11.20;99.90;;;;;;5133643;27;20039;-72
2022/06/10 02:16:44;;;;;;;9.00;3.45;;;11.20;99.90;;;;;;5130342;27;20075;-72
2022/06/10 02:19:26;;;;;;;9.38;3.42;;;11.20;99.90;;;;;;5136729;27;20034;-72
2022/06/10 02:22:00;;;;;;;9.27;3.38;;;11.10;99.90;;;;;;5119317;27;20095;-72
2022/06/10 02:24:37;;;;;;;14.80;3.67;;;11.10;99.90;;;;;;5141584;27;20030;-72
2022/06/10 02:27:13;;;;;;;7.63;3.28;;;11.10;99.90;;;;;;5124449;27;20050;-72
2022/06/10 02:29:53;;;;;;;10.20;3.67;;;11.10;99.90;;;;;;5123386;27;20054;-72
2022/06/10 02:32:19;;;;;;;8.00;3.10;;;11.10;99.90;;;;;;5124036;27;20042;-72
2022/06/10 02:34:45;;;;;;;9.15;3.38;;;11.10;99.90;;;;;;5125105;27;20117;-72
2022/06/10 02:37:39;;;;;;;11.05;3.65;;;11.10;99.90;;;;;;5119278;27;20504;-72
2022/06/10 02:40:14;;;;;;;9.07;2.97;;;11.00;99.90;;;;;;5130780;27;20038;-72
2022/06/10 02:42:51;;;;;;;11.35;3.53;;;11.00;99.90;;;;;;5124127;27;20082;-72
2022/06/10 02:45:37;;;;;;;7.97;3.40;;;11.00;99.90;;;;;;5137611;27;20039;-72
2022/06/10 02:48:21;;;;;;;10.00;2.72;;;11.00;99.90;;;;;;5141526;27;20057;-72
2022/06/10 02:50:47;;;;;;;9.63;3.38;;;11.00;99.90;;;;;;5125230;27;20045;-72
2022/06/10 02:53:13;;;;;;;6.82;2.78;;;10.90;99.90;;;;;;5141812;27;20035;-72
2022/06/10 02:55:39;;;;;;;16.02;3.40;;;10.90;99.90;;;;;;5125835;27;20023;-72
2022/06/10 03:01:16;;;;;;;10.57;3.10;;;10.80;99.90;;;;;;5123249;27;20049;-72
2022/06/10 03:03:54;;;;;;;10.15;3.53;;;10.80;99.90;;;;;;5127981;27;20046;-72
2022/06/10 03:06:47;;;;;;;10.63;3.40;;;10.80;99.90;;;;;;5126957;27;20042;-72
2022/06/10 03:09:18;;;;;;;10.02;3.28;;;10.70;99.90;;;;;;5122433;27;20096;-72
2022/06/10 03:11:54;;;;;;;9.63;3.20;;;10.70;99.90;;;;;;5128918;27;20042;-73
2022/06/10 03:14:51;;;;;;;9.63;3.53;;;10.70;99.90;;;;;;5122517;27;20045;-72
2022/06/10 03:18:04;;;;;;;11.52;3.30;;;10.70;99.90;;;;;;5125859;27;20035;-72
2022/06/10 03:20:45;;;;;;;14.32;3.75;;;10.70;99.90;;;;;;5143067;27;20053;-72
2022/06/10 03:23:10;;;;;;;14.45;3.97;;;10.70;99.90;;;;;;5143255;27;20139;-72
2022/06/10 03:25:52;;;;;;;8.88;3.80;;;10.70;99.90;;;;;;5128411;27;20058;-72
2022/06/10 03:28:26;;;;;;;14.07;4.05;;;10.70;99.90;;;;;;5143416;27;20191;-72
2022/06/10 03:31:02;;;;;;;14.25;4.15;;;10.70;99.90;;;;;;5123885;27;20146;-72
2022/06/10 03:33:34;;;;;;;9.32;4.03;;;10.70;99.90;;;;;;5150216;27;20123;-73
2022/06/10 03:36:02;;;;;;;12.13;3.92;;;10.70;99.90;;;;;;5125419;27;20054;-72
2022/06/10 03:38:31;;;;;;;11.10;3.75;;;10.80;99.90;;;;;;5134525;27;20508;-72
2022/06/10 03:40:59;;;;;;;14.75;3.67;;;10.80;99.90;;;;;;5148216;27;20441;-72
2022/06/10 03:43:25;;;;;;;11.13;3.90;;;10.80;99.90;;;;;;5129282;27;20061;-72
2022/06/10 03:46:01;;;;;;;11.05;3.83;;;10.80;99.90;;;;;;5139303;27;20050;-72
2022/06/10 03:48:31;;;;;;;12.45;3.70;;;10.80;99.90;;;;;;5121480;27;20081;-72
2022/06/10 03:50:57;;;;;;;8.77;3.75;;;10.90;99.90;;;;;;5143192;27;20030;-72
2022/06/10 03:53:25;;;;;;;12.30;4.13;;;10.90;99.90;;;;;;5131109;27;20054;-72
2022/06/10 03:55:51;;;;;;;13.15;4.57;;;10.90;99.90;;;;;;5128356;27;20374;-73
2022/06/10 03:58:18;;;;;;;13.73;4.00;;;11.00;99.90;;;;;;5147305;27;20039;-72
2022/06/10 04:00:45;;;;;;;12.98;4.05;;;10.90;99.90;;;;;;5142091;27;20366;-73
2022/06/10 04:03:11;;;;;;;14.63;4.00;;;11.00;99.90;;;;;;5149352;27;20485;-72
2022/06/10 04:05:38;;;;;;;11.25;3.67;;;11.00;99.90;;;;;;5128221;27;20045;-72
2022/06/10 04:08:04;;;;;;;14.55;3.75;;;11.00;99.90;;;;;;5146240;27;20435;-73
2022/06/10 04:10:31;;;;;;;14.35;4.05;;;11.00;99.90;;;;;;5124318;27;20042;-73
2022/06/10 04:12:57;;;;;;;9.30;4.32;;;11.10;99.90;;;;;;5136790;27;20501;-72
2022/06/10 04:15:27;;;;;;;14.77;4.38;;;11.10;99.90;;;;;;5127586;27;20054;-73
2022/06/10 04:17:55;;;;;;;17.92;4.55;;;11.10;99.90;;;;;;5128393;27;20571;-72
2022/06/10 04:20:28;;;;;;;11.32;4.43;;;11.20;99.90;;;;;;5127885;27;20530;-72
2022/06/10 04:22:54;;;;;;;12.18;4.82;;;11.20;99.90;;;;;;5141033;27;20492;-72
2022/06/10 04:25:20;;;;;;;10.20;4.57;;;11.20;99.90;;;;;;5144412;27;20033;-72
2022/06/10 04:27:46;;;;;;;13.65;4.93;;;11.20;99.90;;;;;;5149471;27;20508;-72
2022/06/10 04:30:26;;;;;;;12.77;5.03;;;11.30;99.90;;;;;;5145080;27;20057;-73
2022/06/10 04:32:52;;;;;;;18.77;4.90;;;11.30;99.90;;;;;;5141619;27;20481;-73
2022/06/10 04:35:18;;;;;;;15.57;4.95;;;11.40;99.90;;;;;;5142069;27;20393;-73
2022/06/10 04:37:45;;;;;;;16.13;5.45;;;11.40;99.90;;;;;;5133963;27;20489;-73
2022/06/10 04:40:14;;;;;;;12.52;5.47;;;11.50;99.90;;;;;;5152447;27;20047;-73
2022/06/10 04:42:40;;;;;;;15.52;5.20;;;11.50;99.90;;;;;;5120993;27;20043;-73
2022/06/10 04:45:07;;;;;;;14.88;5.47;;;11.60;99.90;;;;;;5122745;27;20067;-73
2022/06/10 04:47:33;;;;;;;23.23;5.82;;;11.60;99.90;;;;;;5147328;27;20034;-72
2022/06/10 04:49:59;;;;;;;19.27;5.85;;;11.70;99.90;;;;;;5124648;27;20111;-72
2022/06/10 04:52:27;;;;;;;21.15;6.35;;;11.80;99.90;;;;;;5139910;27;20038;-72
2022/06/10 04:54:53;;;;;;;15.43;5.47;;;11.80;99.90;;;;;;5140787;27;20027;-72
2022/06/10 04:57:19;;;;;;;19.95;5.47;;;11.90;99.90;;;;;;5146294;27;20058;-72
2022/06/10 04:59:45;;;;;;;17.00;5.63;;;12.00;99.90;;;;;;5146388;27;20045;-73
2022/06/10 05:02:10;;;;;;;20.45;6.65;;;12.10;99.90;;;;;;5138879;27;20469;-73
2022/06/10 05:04:36;;;;;;;13.63;6.25;;;12.30;99.90;;;;;;5143462;27;20037;-73
2022/06/10 05:07:02;;;;;;;12.88;6.28;;;12.40;99.90;;;;;;5123615;27;20137;-73
2022/06/10 05:09:27;;;;;;;14.93;5.72;;;12.60;99.90;;;;;;5143936;27;20046;-73
2022/06/10 05:11:53;;;;;;;15.40;6.47;;;12.70;99.90;;;;;;5137690;27;20030;-72
2022/06/10 05:14:19;;;;;;;16.13;6.18;;;12.80;99.90;;;;;;5132130;27;20049;-73
2022/06/10 05:16:44;;;;;;;21.15;6.10;;;13.00;99.90;;;;;;5143377;27;20066;-72
2022/06/10 05:19:10;;;;;;;20.02;6.40;;;13.20;99.90;;;;;;5136432;27;20049;-73
2022/06/10 05:21:36;;;;;;;16.40;6.07;;;13.40;99.90;;;;;;5125663;27;20039;-73
2022/06/10 05:24:01;;;;;;;12.45;5.45;;;13.60;99.90;;;;;;5133598;27;20035;-73
2022/06/10 05:26:29;;;;;;;19.60;6.15;;;13.70;99.90;;;;;;5143748;27;20041;-73
2022/06/10 05:28:56;;;;;;;15.02;5.63;;;13.80;99.90;;;;;;5120998;27;20043;-73
2022/06/10 05:31:22;;;;;;;16.55;6.07;;;13.90;99.90;;;;;;5128880;27;20054;-73
2022/06/10 05:36:32;;;;;;;14.85;5.25;;;14.10;99.90;;;;;;5142062;27;20083;-72
2022/06/10 05:38:58;;;;;;;14.40;4.93;;;14.10;99.90;;;;;;5122869;27;20042;-72
2022/06/10 05:44:09;;;;;;;13.93;5.18;;;14.30;99.90;;;;;;5125991;27;20031;-73
2022/06/10 05:46:35;;;;;;;17.52;5.00;;;14.30;99.90;;;;;;5119964;27;20046;-73
2022/06/10 05:49:02;;;;;;;14.80;5.05;;;14.40;99.90;;;;;;5127583;27;20035;-72
2022/06/10 05:51:28;;;;;;;19.63;4.65;;;14.40;99.90;;;;;;5117949;27;20038;-73
2022/06/10 05:53:54;;;;;;;15.27;4.68;;;14.50;99.90;;;;;;5138075;27;20036;-73
2022/06/10 05:56:19;;;;;;;14.93;4.70;;;14.50;99.90;;;;;;5146076;27;20035;-73
2022/06/10 05:58:45;;;;;;;15.13;4.65;;;14.50;99.90;;;;;;5102963;27;20042;-73
2022/06/10 06:01:10;;;;;;;14.85;4.82;;;14.60;99.90;;;;;;5114643;27;20042;-72
2022/06/10 06:03:37;;;;;;;14.50;4.95;;;14.60;99.90;;;;;;5141155;27;20039;-73
2022/06/10 06:06:03;;;;;;;13.20;4.93;;;14.60;99.90;;;;;;5141365;27;20043;-73
2022/06/10 06:08:29;;;;;;;16.77;4.97;;;14.60;99.90;;;;;;5132833;27;20038;-72
2022/06/10 06:10:54;;;;;;;11.68;4.82;;;14.60;99.90;;;;;;5145089;27;20031;-73
2022/06/10 06:13:20;;;;;;;13.93;4.80;;;14.70;99.90;;;;;;5105023;28;20061;-74
2022/06/10 06:15:46;;;;;;;12.07;4.85;;;14.80;99.90;;;;;;5129311;27;20092;-73
2022/06/10 06:18:13;;;;;;;15.18;4.60;;;14.90;99.90;;;;;;5119318;27;20031;-74
2022/06/10 06:20:40;;;;;;;16.25;5.32;;;14.90;99.90;;;;;;5135237;27;20051;-74
2022/06/10 06:23:05;;;;;;;14.38;4.95;;;15.00;99.90;;;;;;5139881;27;20941;-73
2022/06/10 06:25:32;;;;;;;14.50;4.90;;;15.10;99.90;;;;;;5114264;27;20063;-73
2022/06/10 06:27:58;;;;;;;15.65;4.85;;;15.10;99.90;;;;;;5141545;27;20117;-73
2022/06/10 06:30:32;;;;;;;17.00;5.05;;;15.20;99.90;;;;;;5136847;27;20035;-73
2022/06/10 06:33:01;;;;;;;19.95;4.80;;;15.30;99.90;;;;;;5133181;27;20046;-74
2022/06/10 06:35:27;;;;;;;16.20;4.88;;;15.30;99.90;;;;;;5141289;27;20114;-74
2022/06/10 06:37:53;;;;;;;15.57;5.05;;;15.40;99.90;;;;;;5148241;27;20039;-74
2022/06/10 06:40:19;;;;;;;16.55;5.40;;;15.50;99.90;;;;;;5139777;27;20041;-73
2022/06/10 06:42:45;;;;;;;16.80;5.35;;;15.50;99.90;;;;;;5146903;27;20056;-73
2022/06/10 06:45:11;;;;;;;17.33;5.35;;;15.50;99.90;;;;;;5155024;27;20042;-73
2022/06/10 06:47:37;;;;;;;16.10;5.45;;;15.50;99.90;;;;;;5126738;27;20082;-73
2022/06/10 06:50:04;;;;;;;14.18;5.95;;;15.50;99.90;;;;;;5152927;27;20071;-73
2022/06/10 06:52:29;;;;;;;17.52;6.05;;;15.50;99.90;;;;;;5127877;27;20038;-73
2022/06/10 06:54:55;;;;;;;15.90;6.05;;;15.40;99.90;;;;;;5151032;27;20423;-73
2022/06/10 06:57:20;;;;;;;12.02;5.68;;;15.40;99.90;;;;;;5147981;27;20035;-73
2022/06/10 06:59:46;;;;;;;24.50;6.72;;;15.40;99.90;;;;;;5143757;27;20083;-73
2022/06/10 07:02:12;;;;;;;13.80;5.57;;;15.50;99.90;;;;;;5150398;27;20072;-73
2022/06/10 07:04:38;;;;;;;15.80;6.22;;;15.50;99.90;;;;;;5152194;27;20046;-73
2022/06/10 07:07:05;;;;;;;13.18;6.05;;;15.50;99.90;;;;;;5145051;27;20035;-73
2022/06/10 07:09:31;;;;;;;15.77;6.80;;;15.60;99.90;;;;;;5141672;27;20038;-73
2022/06/10 07:11:56;;;;;;;18.73;6.28;;;15.60;99.90;;;;;;5128635;27;20042;-74
2022/06/10 07:14:22;;;;;;;15.13;6.65;;;15.70;99.90;;;;;;5125069;27;20045;-73
2022/06/10 07:16:52;;;;;;;15.90;6.60;;;15.70;99.90;;;;;;5133990;27;20046;-73
2022/06/10 07:19:22;;;;;;;15.02;6.85;;;15.70;99.90;;;;;;5140527;27;20087;-73
2022/06/10 07:21:48;;;;;;;15.73;6.63;;;15.90;99.90;;;;;;5130027;27;20079;-73
2022/06/10 07:24:14;;;;;;;12.98;6.20;;;16.00;99.90;;;;;;5149403;27;20112;-73
2022/06/10 07:26:40;;;;;;;15.68;6.32;;;16.10;99.90;;;;;;5148414;27;20082;-73
2022/06/10 07:29:06;;;;;;;16.58;6.20;;;16.30;99.90;;;;;;5127996;27;20059;-74
2022/06/10 07:31:34;;;;;;;14.18;5.88;;;16.50;99.90;;;;;;5123485;27;20031;-73
2022/06/10 07:34:02;;;;;;;16.35;5.95;;;16.60;99.90;;;;;;5126826;27;20438;-74
2022/06/10 07:36:28;;;;;;;14.00;5.35;;;16.60;99.90;;;;;;5128066;27;20091;-73
2022/06/10 07:38:54;;;;;;;17.58;5.40;;;16.70;99.90;;;;;;5142456;27;20065;-73
2022/06/10 07:44:04;;;;;;;13.55;4.78;;;16.80;99.90;;;;;;5139702;27;20061;-73
2022/06/10 07:46:30;;;;;;;9.77;5.05;;;16.90;99.90;;;;;;5126126;27;20047;-73
2022/06/10 07:48:55;;;;;;;15.20;5.22;;;17.00;99.90;;;;;;5143586;27;20397;-73
2022/06/10 07:51:22;;;;;;;12.13;5.10;;;17.00;99.90;;;;;;5125262;27;20046;-74
2022/06/10 07:53:49;;;;;;;17.05;5.13;;;17.00;99.90;;;;;;5128693;27;20075;-73
2022/06/10 07:56:22;;;;;;;10.75;4.65;;;17.10;99.90;;;;;;5140831;27;20045;-73
2022/06/10 07:58:49;;;;;;;15.18;5.13;;;17.20;99.90;;;;;;5123807;27;20107;-73
2022/06/10 08:01:16;;;;;;;11.02;4.45;;;17.30;99.90;;;;;;5137989;27;20034;-73
2022/06/10 08:03:42;;;;;;;11.30;4.65;;;17.40;99.90;;;;;;5139369;27;20038;-73
2022/06/10 08:06:08;;;;;;;13.90;4.50;;;17.50;99.90;;;;;;5120835;27;20031;-73
2022/06/10 08:08:34;;;;;;;12.82;4.50;;;17.70;99.90;;;;;;5122038;27;20035;-74
2022/06/10 08:11:00;;;;;;;15.32;4.78;;;17.70;99.90;;;;;;5126871;27;20053;-73
2022/06/10 08:13:26;;;;;;;10.02;4.20;;;17.80;99.90;;;;;;5127351;27;20427;-73
2022/06/10 08:15:52;;;;;;;11.93;3.95;;;17.80;99.90;;;;;;5141637;27;20039;-73
2022/06/10 08:18:20;;;;;;;12.68;4.38;;;17.80;99.90;;;;;;5120790;27;20045;-73
2022/06/10 08:23:33;;;;;;;14.43;4.20;;;17.80;99.90;;;;;;5121171;27;20220;-73
2022/06/10 08:26:03;;;;;;;13.85;4.68;;;17.80;99.90;;;;;;5126678;27;20041;-73
2022/06/10 08:28:28;;;;;;;12.10;4.03;;;17.80;99.90;;;;;;5136678;27;20117;-74
2022/06/10 08:30:55;;;;;;;14.27;4.25;;;17.80;99.90;;;;;;5139916;27;20118;-73
2022/06/10 08:33:21;;;;;;;11.77;3.85;;;17.80;99.90;;;;;;5146005;27;20038;-73
2022/06/10 08:35:47;;;;;;;13.43;4.30;;;17.90;99.90;;;;;;5142738;27;20035;-73
2022/06/10 08:38:15;;;;;;;13.70;4.18;;;17.90;99.90;;;;;;5118677;27;20043;-73
2022/06/10 08:40:56;;;;;;;11.57;3.95;;;17.90;99.90;;;;;;5124047;27;20046;-74
2022/06/10 08:43:56;;;;;;;14.88;3.97;;;17.90;99.90;;;;;;5120661;27;20043;-73
2022/06/10 08:46:55;;;;;;;13.50;4.70;;;17.90;99.90;;;;;;5125566;27;20165;-74
2022/06/10 08:49:40;;;;;;;13.75;3.95;;;17.90;99.90;;;;;;5121639;27;20079;-73
2022/06/10 08:52:39;;;;;;;13.75;4.25;;;18.00;99.90;;;;;;5139497;27;20031;-73
2022/06/10 08:55:15;;;;;;;15.23;4.13;;;18.00;99.90;;;;;;5141520;27;20111;-73
2022/06/10 08:57:44;;;;;;;13.50;4.03;;;18.10;99.90;;;;;;5117420;27;20092;-73
2022/06/10 09:00:26;;;;;;;10.82;4.00;;;18.20;99.90;;;;;;5137414;27;20030;-73
2022/06/10 09:03:13;;;;;;;13.52;3.50;;;18.20;99.90;;;;;;5125644;27;21780;-74
2022/06/10 09:05:45;;;;;;;11.65;3.80;;;18.20;99.90;;;;;;5105939;27;20047;-73
2022/06/10 09:08:27;;;;;;;11.88;4.22;;;18.10;99.90;;;;;;5122910;27;20066;-73
2022/06/10 09:11:06;;;;;;;10.43;3.95;;;18.20;99.90;;;;;;5117020;27;20102;-73
2022/06/10 09:13:41;;;;;;;10.70;3.45;;;18.30;99.90;;;;;;5123213;27;20142;-73
2022/06/10 09:16:15;;;;;;;10.18;3.60;;;18.30;99.90;;;;;;5116595;27;20042;-73
2022/06/10 09:18:56;;;;;;;13.57;3.97;;;18.20;99.90;;;;;;5118984;27;20038;-73
2022/06/10 09:21:46;;;;;;;14.50;4.25;;;18.10;99.90;;;;;;5122082;27;20035;-73
2022/06/10 09:24:43;;;;;;;11.13;3.33;;;18.10;99.90;;;;;;5120095;27;20801;-72
2022/06/10 09:27:23;;;;;;;8.93;3.45;;;18.10;99.90;;;;;;5118268;27;20179;-73
2022/06/10 09:29:49;;;;;;;11.00;3.65;;;18.00;99.90;;;;;;5143378;27;20039;-72
2022/06/10 09:32:44;;;;;;;15.10;4.07;;;18.00;99.90;;;;;;5127174;27;20066;-72
2022/06/10 09:35:19;;;;;;;14.90;3.83;;;18.00;99.90;;;;;;5119907;27;20078;-72
2022/06/10 09:38:02;;;;;;;11.35;3.83;;;18.00;99.90;;;;;;5123837;27;20070;-72
2022/06/10 09:40:51;;;;;;;13.45;3.50;;;18.00;99.90;;;;;;5123272;27;20058;-72
2022/06/10 09:43:42;;;;;;;11.07;3.38;;;18.10;99.90;;;;;;5120446;27;21625;-72
2022/06/10 09:46:29;;;;;;;12.68;3.33;;;18.10;99.90;;;;;;5124764;27;20027;-72
2022/06/10 09:49:23;;;;;;;11.93;3.47;;;18.10;99.90;;;;;;5123319;27;20493;-73
2022/06/10 09:52:15;;;;;;;13.10;3.25;;;18.10;99.90;;;;;;5124486;27;20244;-72
2022/06/10 09:55:00;;;;;;;10.35;3.15;;;18.10;99.90;;;;;;5126023;27;20042;-72
2022/06/10 09:57:48;;;;;;;11.02;3.58;;;18.10;99.90;;;;;;5122121;27;20035;-73
2022/06/10 10:00:20;;;;;;;12.30;3.45;;;18.20;99.90;;;;;;5124726;27;20070;-72
2022/06/10 10:03:01;;;;;;;10.10;3.28;;;18.30;99.90;;;;;;5124844;27;20503;-72
2022/06/10 10:06:01;;;;;;;11.65;3.05;;;18.60;99.90;;;;;;5122744;27;20587;-72
2022/06/10 10:08:50;;;;;;;9.27;3.38;;;18.90;99.90;;;;;;5126844;27;20346;-72
2022/06/10 10:11:32;;;;;;;10.07;3.22;;;19.20;99.90;;;;;;5134027;27;20377;-72
2022/06/10 10:14:07;;;;;;;10.85;3.40;;;19.70;99.90;;;;;;5136780;27;20393;-72
2022/06/10 10:16:44;;;;;;;11.43;3.35;;;19.90;99.90;;;;;;5130124;27;20046;-72
2022/06/10 10:19:32;;;;;;;9.75;3.22;;;19.90;99.90;;;;;;5132619;27;20713;-73
2022/06/10 10:22:30;;;;;;;8.93;3.05;;;19.80;99.90;;;;;;5118682;27;20042;-73
2022/06/10 10:24:56;;;;;;;9.15;2.88;;;19.80;99.90;;;;;;5131054;27;20397;-73
2022/06/10 10:27:32;;;;;;;8.52;2.65;;;19.80;99.90;;;;;;5132378;27;20117;-73
2022/06/10 10:30:16;;;;;;;9.15;2.85;;;19.80;99.90;;;;;;5123121;27;20035;-72
2022/06/10 10:32:47;;;;;;;10.65;3.40;;;19.90;99.90;;;;;;5123246;27;20484;-73
2022/06/10 10:35:26;;;;;;;8.90;2.83;;;20.00;99.90;;;;;;5122522;27;20412;-73
2022/06/10 10:38:01;;;;;;;12.35;3.50;;;20.30;99.90;;;;;;5108617;27;20357;-73
2022/06/10 10:40:47;;;;;;;14.25;3.55;;;20.50;99.90;;;;;;5105283;27;20385;-73
2022/06/10 10:43:21;;;;;;;13.35;3.40;;;20.50;99.90;;;;;;5125144;27;20393;-73
2022/06/10 10:46:07;;;;;;;18.95;3.58;;;20.70;99.90;;;;;;5119035;27;20416;-73
2022/06/10 10:48:47;;;;;;;10.95;3.13;;;21.00;99.90;;;;;;5120758;27;20398;-73
2022/06/10 10:51:12;;;;;;;8.43;2.88;;;21.00;99.90;;;;;;5117787;27;20389;-73
2022/06/10 10:53:49;;;;;;;10.70;3.05;;;21.10;99.90;;;;;;5123434;27;20038;-73
2022/06/10 10:56:16;;;;;;;8.90;2.97;;;21.10;99.90;;;;;;5121356;27;20389;-73
2022/06/10 10:58:51;;;;;;;9.25;3.20;;;21.20;99.90;;;;;;5121671;27;20043;-73
2022/06/10 11:01:43;;;;;;;9.73;3.15;;;21.00;99.90;;;;;;5119509;27;20087;-73
2022/06/10 11:04:23;;;;;;;11.02;3.00;;;21.10;99.90;;;;;;5138292;27;20170;-73
2022/06/10 11:07:05;;;;;;;13.43;3.28;;;21.10;99.90;;;;;;5142065;27;20645;-72
2022/06/10 11:09:31;;;;;;;12.05;3.28;;;21.10;99.90;;;;;;5120754;27;20096;-73
2022/06/10 11:12:03;;;;;;;8.43;3.38;;;20.90;99.90;;;;;;5140607;27;20032;-73
2022/06/10 11:14:35;;;;;;;16.92;3.80;;;21.00;99.90;;;;;;5142683;27;20053;-73
2022/06/10 11:17:13;;;;;;;15.27;3.22;;;21.10;99.90;;;;;;5134742;27;20404;-73
2022/06/10 11:19:56;;;;;;;11.02;3.10;;;21.10;99.90;;;;;;5110645;27;20034;-73
2022/06/10 11:22:29;;;;;;;10.55;2.80;;;21.40;99.90;;;;;;5130599;27;20031;-73
2022/06/10 11:25:22;;;;;;;8.10;2.85;;;21.70;99.90;;;;;;5154411;27;20034;-73
2022/06/10 11:27:47;;;;;;;;;;;21.90;99.90;;;;;;5133945;27;20051;-73
2022/06/10 11:30:13;;;;;;;11.18;3.25;;;22.00;99.90;;;;;;5134820;27;20269;-73
2022/06/10 11:32:52;;;;;;;12.27;3.30;;;21.90;99.90;;;;;;5135069;27;20049;-73
2022/06/10 11:35:26;;;;;;;9.73;3.22;;;22.10;99.90;;;;;;5129490;27;20069;-72
2022/06/10 11:38:03;;;;;;;11.85;2.80;;;22.00;99.90;;;;;;5130060;27;20069;-72
2022/06/10 11:40:46;;;;;;;11.98;3.25;;;21.80;99.90;;;;;;5128960;27;20027;-72
2022/06/10 11:43:39;;;;;;;13.63;3.17;;;21.60;99.90;;;;;;5140203;27;20039;-73
2022/06/10 11:46:18;;;;;;;14.70;3.22;;;21.50;99.90;;;;;;5145473;27;20043;-73
2022/06/10 11:48:53;;;;;;;7.93;2.80;;;21.40;99.90;;;;;;5149425;27;20050;-73
2022/06/10 11:51:33;;;;;;;9.57;3.08;;;21.50;99.90;;;;;;5139504;27;20090;-73
2022/06/10 11:54:05;;;;;;;11.30;2.65;;;21.80;99.90;;;;;;5129220;27;20572;-73
2022/06/10 11:59:53;;;;;;;9.88;2.67;;;22.00;99.90;;;;;;5133051;27;20042;-73
2022/06/10 12:02:30;;;;;;;9.70;2.63;;;22.10;99.90;;;;;;5115257;27;20061;-73
2022/06/10 12:05:22;;;;;;;9.50;2.55;;;22.00;99.90;;;;;;5134100;27;20039;-73
2022/06/10 12:08:17;;;;;;;8.52;2.45;;;22.30;99.90;;;;;;5116678;27;20062;-73
2022/06/10 12:10:49;;;;;;;8.07;2.40;;;22.50;99.90;;;;;;5131416;27;20035;-73
2022/06/10 12:13:15;;;;;;;12.30;2.50;;;22.60;99.90;;;;;;5128836;27;20126;-73
2022/06/10 12:15:48;;;;;;;11.43;2.78;;;22.60;99.90;;;;;;5115720;27;20088;-73
2022/06/10 12:18:16;;;;;;;10.65;2.55;;;22.50;99.90;;;;;;5146675;27;20054;-73
2022/06/10 12:20:49;;;;;;;9.75;2.47;;;22.40;99.90;;;;;;5153759;27;20091;-72
2022/06/10 12:23:28;;;;;;;9.70;2.45;;;22.30;99.90;;;;;;5129494;27;20070;-72
2022/06/10 12:25:59;;;;;;;10.05;2.67;;;22.20;99.90;;;;;;5128472;27;20042;-72
2022/06/10 12:28:33;;;;;;;8.07;2.40;;;21.80;99.90;;;;;;5141431;27;20096;-72
2022/06/10 12:31:16;;;;;;;8.48;2.35;;;21.50;99.90;;;;;;5129287;27;20050;-72
2022/06/10 12:33:52;;;;;;;12.20;2.47;;;21.30;99.90;;;;;;5148133;27;20056;-73
2022/06/10 12:36:28;;;;;;;9.98;2.70;;;21.10;99.90;;;;;;5135493;27;20046;-73
2022/06/10 12:38:57;;;;;;;13.23;2.65;;;21.10;99.90;;;;;;5148361;27;20501;-73
2022/06/10 12:41:38;;;;;;;12.73;2.88;;;21.10;99.90;;;;;;5147004;27;20245;-73
2022/06/10 12:44:15;;;;;;;11.13;2.80;;;21.00;99.90;;;;;;5145279;27;20131;-73
2022/06/10 12:47:14;;;;;;;8.88;2.30;;;21.20;99.90;;;;;;5130470;27;20069;-73
2022/06/10 12:49:46;;;;;;;10.15;2.28;;;21.40;99.90;;;;;;5096682;27;20058;-73
2022/06/10 12:52:34;;;;;;;10.35;2.40;;;21.50;99.90;;;;;;5116834;27;20030;-73
2022/06/10 12:55:05;;;;;;;8.95;2.58;;;21.70;99.90;;;;;;5144069;27;20039;-73
2022/06/10 12:57:36;;;;;;;10.95;3.15;;;21.80;99.90;;;;;;5142487;27;20042;-73
2022/06/10 13:00:17;;;;;;;11.15;2.90;;;21.90;99.90;;;;;;5124541;27;20106;-73
2022/06/10 13:02:52;;;;;;;10.18;2.90;;;22.00;99.90;;;;;;5122079;27;20096;-73
2022/06/10 13:05:22;;;;;;;12.73;2.70;;;21.80;99.90;;;;;;5139987;27;20031;-73
2022/06/10 13:07:51;;;;;;;12.20;2.50;;;21.80;99.90;;;;;;5121871;27;20046;-73
2022/06/10 13:10:43;;;;;;;9.75;2.53;;;21.70;99.90;;;;;;5137857;27;20031;-73
2022/06/10 13:13:18;;;;;;;8.52;2.58;;;21.60;99.90;;;;;;5125057;27;20706;-73
2022/06/10 13:15:44;;;;;;;7.32;2.30;;;21.50;99.90;;;;;;5139259;27;20069;-72
2022/06/10 13:18:22;;;;;;;8.93;3.03;;;21.60;99.90;;;;;;5139546;27;20043;-73
2022/06/10 13:20:49;;;;;;;10.13;2.63;;;21.70;99.90;;;;;;5143448;27;20031;-73
2022/06/10 13:23:27;;;;;;;9.10;2.50;;;21.90;99.90;;;;;;5139023;27;20400;-73
2022/06/10 13:26:04;;;;;;;7.38;2.35;;;22.00;99.90;;;;;;5135171;27;20027;-73
2022/06/10 13:28:37;;;;;;;10.52;3.05;;;22.10;99.90;;;;;;5126772;27;20046;-73
2022/06/10 13:31:13;;;;;;;11.48;2.63;;;21.90;99.90;;;;;;5133435;27;20043;-73